createdAt,value
2017-12-08T00:01:18.697Z,62.43
2017-12-08T00:03:45.234Z,62.04
2017-12-08T00:06:11.688Z,61.87
2017-12-08T00:08:38.176Z,62.62
2017-12-08T00:11:04.592Z,61.54
2017-12-08T00:13:31.066Z,61.30
2017-12-08T00:15:57.541Z,61.61
2017-12-08T00:18:24.052Z,62.06
2017-12-08T00:20:50.517Z,61.96
2017-12-08T00:23:17.023Z,62.00
2017-12-08T00:25:43.488Z,62.14
2017-12-08T00:28:09.993Z,62.29
2017-12-08T00:30:36.456Z,62.75
2017-12-08T00:33:02.946Z,62.97
2017-12-08T00:35:29.396Z,62.83
2017-12-08T00:37:55.828Z,62.44
2017-12-08T00:40:22.284Z,62.79
2017-12-08T00:42:48.776Z,62.90
2017-12-08T00:45:15.236Z,62.88
2017-12-08T00:47:41.656Z,62.32
2017-12-08T00:50:08.052Z,62.24
2017-12-08T00:52:34.630Z,62.42
2017-12-08T00:55:01.148Z,62.43
2017-12-08T00:57:27.703Z,62.69
2017-12-08T00:59:54.192Z,62.80
2017-12-08T01:02:20.637Z,62.85
2017-12-08T01:04:47.089Z,62.89
2017-12-08T01:07:13.601Z,62.81
2017-12-08T01:09:40.052Z,62.08
2017-12-08T01:12:06.488Z,62.85
2017-12-08T01:14:32.974Z,62.82
2017-12-08T01:16:59.457Z,62.56
2017-12-08T01:19:25.852Z,62.73
2017-12-08T01:21:52.353Z,62.61
2017-12-08T01:24:18.808Z,62.58
2017-12-08T01:26:45.415Z,62.82
2017-12-08T01:29:11.913Z,62.67
2017-12-08T01:31:38.313Z,62.93
2017-12-08T01:34:04.749Z,62.42
2017-12-08T01:36:31.219Z,62.79
2017-12-08T01:38:57.889Z,63.43
2017-12-08T01:41:24.300Z,63.37
2017-12-08T01:43:50.793Z,62.92
2017-12-08T01:46:17.292Z,63.58
2017-12-08T01:48:43.769Z,63.37
2017-12-08T01:51:10.361Z,62.93
2017-12-08T01:53:36.835Z,63.05
2017-12-08T01:56:03.325Z,63.08
2017-12-08T01:58:29.963Z,63.65
2017-12-08T02:00:56.504Z,63.77
2017-12-08T02:03:23.142Z,63.14
2017-12-08T02:05:49.679Z,63.87
2017-12-08T02:08:16.105Z,63.88
2017-12-08T02:10:42.605Z,63.38
2017-12-08T02:13:09.167Z,63.51
2017-12-08T02:15:35.597Z,63.82
2017-12-08T02:18:02.133Z,63.98
2017-12-08T02:20:28.778Z,63.50
2017-12-08T02:22:55.277Z,63.52
2017-12-08T02:25:21.773Z,63.74
2017-12-08T02:27:48.376Z,64.02
2017-12-08T02:30:14.884Z,64.29
2017-12-08T02:32:41.449Z,64.36
2017-12-08T02:35:08.003Z,64.00
2017-12-08T02:37:34.472Z,64.22
2017-12-08T02:40:00.908Z,64.17
2017-12-08T02:42:27.393Z,63.87
2017-12-08T02:44:54.063Z,64.24
2017-12-08T02:47:20.613Z,64.28
2017-12-08T02:49:47.197Z,64.00
2017-12-08T02:52:13.737Z,63.35
2017-12-08T02:54:40.209Z,63.40
2017-12-08T02:57:06.725Z,64.04
2017-12-08T02:59:33.169Z,63.76
2017-12-08T03:01:59.794Z,63.75
2017-12-08T03:04:26.289Z,63.16
2017-12-08T03:06:52.761Z,63.25
2017-12-08T03:09:19.307Z,63.75
2017-12-08T03:11:45.857Z,63.40
2017-12-08T03:14:12.321Z,64.06
2017-12-08T03:16:39.010Z,64.19
2017-12-08T03:19:05.526Z,64.42
2017-12-08T03:21:32.079Z,64.24
2017-12-08T03:23:58.573Z,64.07
2017-12-08T03:26:25.149Z,64.22
2017-12-08T03:28:51.637Z,64.43
2017-12-08T03:31:18.049Z,64.25
2017-12-08T03:33:44.628Z,64.10
2017-12-08T03:36:11.093Z,64.27
2017-12-08T03:38:37.552Z,64.47
2017-12-08T03:41:04.080Z,64.38
2017-12-08T03:43:30.694Z,63.37
2017-12-08T03:45:57.146Z,63.02
2017-12-08T03:48:23.630Z,63.17
2017-12-08T03:50:50.100Z,62.69
2017-12-08T03:53:16.560Z,62.79
2017-12-08T03:55:43.148Z,62.15
2017-12-08T03:58:09.688Z,62.17
2017-12-08T04:00:36.347Z,62.49
2017-12-08T04:03:02.861Z,62.61
2017-12-08T04:05:29.316Z,62.36
2017-12-08T04:07:55.781Z,62.18
2017-12-08T04:10:22.289Z,62.17
2017-12-08T04:12:48.818Z,62.18
2017-12-08T04:15:15.261Z,62.33
2017-12-08T04:17:41.786Z,62.22
2017-12-08T04:20:08.230Z,62.26
2017-12-08T04:22:34.694Z,62.23
2017-12-08T04:25:01.169Z,62.36
2017-12-08T04:27:27.633Z,62.47
2017-12-08T04:29:54.156Z,63.00
2017-12-08T04:32:20.685Z,62.85
2017-12-08T04:34:47.139Z,62.83
2017-12-08T04:37:13.616Z,62.41
2017-12-08T04:39:40.097Z,62.65
2017-12-08T04:42:06.553Z,62.68
2017-12-08T04:44:32.997Z,62.58
2017-12-08T04:46:59.605Z,62.85
2017-12-08T04:49:26.117Z,63.35
2017-12-08T04:51:52.799Z,63.27
2017-12-08T04:54:19.369Z,63.20
2017-12-08T04:56:45.839Z,62.57
2017-12-08T04:59:12.307Z,62.71
2017-12-08T05:01:38.900Z,63.01
2017-12-08T05:04:05.353Z,63.31
2017-12-08T05:06:31.805Z,62.97
2017-12-08T05:08:58.280Z,63.28
2017-12-08T05:11:24.733Z,63.42
2017-12-08T05:13:51.270Z,63.54
2017-12-08T05:16:17.761Z,63.75
2017-12-08T05:18:44.213Z,63.34
2017-12-08T05:21:10.722Z,63.33
2017-12-08T05:23:37.293Z,63.51
2017-12-08T05:26:03.780Z,63.39
2017-12-08T05:28:30.228Z,63.28
2017-12-08T05:30:56.722Z,63.46
2017-12-08T05:33:23.277Z,63.56
2017-12-08T05:35:49.696Z,63.33
2017-12-08T05:38:16.236Z,63.61
2017-12-08T05:40:42.702Z,63.58
2017-12-08T05:43:09.509Z,63.17
2017-12-08T05:45:36.100Z,63.16
2017-12-08T05:48:02.574Z,62.98
2017-12-08T05:50:29.097Z,63.14
2017-12-08T05:52:55.757Z,63.09
2017-12-08T05:55:22.376Z,62.37
2017-12-08T05:57:49.042Z,62.72
2017-12-08T06:00:15.573Z,62.76
2017-12-08T06:02:42.301Z,62.80
2017-12-08T06:05:08.819Z,63.37
2017-12-08T06:07:35.304Z,63.02
2017-12-08T06:10:01.744Z,62.79
2017-12-08T06:12:28.320Z,63.33
2017-12-08T06:14:54.844Z,63.14
2017-12-08T06:17:21.277Z,63.10
2017-12-08T06:19:47.736Z,62.98
2017-12-08T06:22:14.221Z,63.18
2017-12-08T06:24:41.005Z,62.69
2017-12-08T06:27:07.480Z,62.92
2017-12-08T06:29:33.981Z,62.79
2017-12-08T06:32:00.529Z,62.79
2017-12-08T06:34:26.945Z,62.86
2017-12-08T06:36:53.429Z,62.73
2017-12-08T06:39:19.843Z,62.55
2017-12-08T06:41:46.269Z,62.28
2017-12-08T06:44:12.781Z,61.93
2017-12-08T06:46:39.317Z,61.90
2017-12-08T06:49:05.847Z,61.95
2017-12-08T06:51:32.309Z,61.63
2017-12-08T06:53:58.842Z,61.75
2017-12-08T06:56:25.289Z,61.87
2017-12-08T06:58:51.754Z,61.55
2017-12-08T07:01:18.445Z,61.46
2017-12-08T07:03:45.112Z,61.58
2017-12-08T07:06:12.013Z,61.92
2017-12-08T07:08:38.528Z,61.38
2017-12-08T07:11:05.295Z,61.21
2017-12-08T07:13:31.895Z,60.91
2017-12-08T07:15:58.309Z,61.16
2017-12-08T07:18:24.816Z,61.25
2017-12-08T07:20:51.550Z,61.60
2017-12-08T07:23:18.188Z,61.89
2017-12-08T07:25:44.683Z,61.60
2017-12-08T07:28:11.346Z,61.42
2017-12-08T07:30:37.912Z,61.55
2017-12-08T07:33:04.840Z,61.14
2017-12-08T07:35:31.684Z,61.08
2017-12-08T07:37:58.224Z,60.81
2017-12-08T07:40:24.846Z,60.55
2017-12-08T07:42:51.330Z,64.69
2017-12-08T07:45:17.841Z,61.99
2017-12-08T07:47:44.345Z,59.67
2017-12-08T07:50:10.917Z,59.27
2017-12-08T07:52:37.439Z,61.04
2017-12-08T07:55:03.901Z,59.63
2017-12-08T07:57:30.388Z,59.03
2017-12-08T07:59:56.920Z,59.49
2017-12-08T08:02:23.357Z,57.09
2017-12-08T08:04:49.904Z,62.29
2017-12-08T08:07:16.425Z,58.05
2017-12-08T08:09:42.839Z,58.42
2017-12-08T08:12:09.354Z,60.11
2017-12-08T08:14:35.880Z,57.46
2017-12-08T08:17:02.366Z,57.78
2017-12-08T08:19:28.905Z,57.83
2017-12-08T08:21:55.436Z,56.40
2017-12-08T08:24:22.091Z,56.14
2017-12-08T08:26:48.730Z,55.44
2017-12-08T08:29:15.368Z,54.45
2017-12-08T08:31:41.989Z,57.27
2017-12-08T08:34:08.625Z,58.89
2017-12-08T08:36:35.120Z,58.42
2017-12-08T08:39:01.700Z,54.92
2017-12-08T08:41:28.337Z,54.37
2017-12-08T08:43:54.888Z,56.08
2017-12-08T08:46:21.458Z,56.32
2017-12-08T08:48:48.107Z,58.08
2017-12-08T08:51:14.583Z,57.14
2017-12-08T08:53:41.236Z,57.55
2017-12-08T08:56:07.874Z,58.45
2017-12-08T08:58:35.351Z,57.91
2017-12-08T09:01:03.127Z,57.24
2017-12-08T09:03:30.147Z,58.00
2017-12-08T09:05:56.733Z,56.80
2017-12-08T09:08:23.338Z,56.02
2017-12-08T09:10:49.889Z,56.81
2017-12-08T09:13:16.495Z,56.85
2017-12-08T09:15:42.990Z,55.49
2017-12-08T09:18:09.670Z,55.33
2017-12-08T09:20:36.138Z,56.18
2017-12-08T09:23:02.954Z,56.29
2017-12-08T09:25:29.584Z,55.98
2017-12-08T09:27:56.116Z,55.57
2017-12-08T09:30:22.684Z,55.30
2017-12-08T09:32:49.301Z,54.47
2017-12-08T09:35:15.977Z,54.52
2017-12-08T09:37:42.392Z,54.62
2017-12-08T09:40:08.905Z,54.12
2017-12-08T09:42:35.360Z,53.57
2017-12-08T09:45:01.866Z,53.25
2017-12-08T09:47:28.673Z,53.22
2017-12-08T09:49:55.311Z,52.77
2017-12-08T09:52:21.779Z,52.75
2017-12-08T09:54:48.353Z,52.14
2017-12-08T09:57:14.837Z,51.87
2017-12-08T09:59:41.285Z,51.54
2017-12-08T10:02:09.065Z,50.68
2017-12-08T10:04:35.505Z,49.46
2017-12-08T10:07:02.211Z,49.53
2017-12-08T10:09:28.845Z,50.33
2017-12-08T10:11:55.381Z,49.54
2017-12-08T10:14:25.016Z,50.22
2017-12-08T10:16:54.838Z,50.83
2017-12-08T10:19:21.456Z,50.95
2017-12-08T10:21:47.941Z,51.06
2017-12-08T10:24:14.509Z,51.47
2017-12-08T10:26:41.747Z,52.31
2017-12-08T10:29:08.601Z,53.40
2017-12-08T10:31:35.123Z,53.74
2017-12-08T10:34:01.555Z,53.89
2017-12-08T10:36:28.019Z,53.70
2017-12-08T10:38:54.571Z,53.31
2017-12-08T10:41:21.076Z,53.56
2017-12-08T10:43:47.614Z,53.57
2017-12-08T10:46:14.376Z,53.64
2017-12-08T10:48:40.888Z,53.43
2017-12-08T10:51:07.321Z,53.03
2017-12-08T10:53:34.033Z,53.03
2017-12-08T10:56:00.601Z,52.69
2017-12-08T10:58:27.121Z,52.83
2017-12-08T11:00:53.688Z,53.44
2017-12-08T11:03:20.145Z,53.34
2017-12-08T11:05:46.625Z,53.22
2017-12-08T11:08:13.172Z,52.84
2017-12-08T11:10:39.943Z,52.91
2017-12-08T11:13:06.399Z,53.52
2017-12-08T11:15:32.917Z,53.14
2017-12-08T11:17:59.348Z,53.04
2017-12-08T11:20:26.689Z,52.89
2017-12-08T11:22:53.157Z,53.06
2017-12-08T11:25:19.652Z,53.28
2017-12-08T11:27:46.140Z,52.66
2017-12-08T11:30:12.612Z,53.56
2017-12-08T11:32:39.265Z,53.34
2017-12-08T11:35:05.693Z,53.47
2017-12-08T11:37:32.169Z,53.34
2017-12-08T11:39:58.772Z,53.77
2017-12-08T11:42:25.492Z,54.17
2017-12-08T11:44:52.125Z,54.12
2017-12-08T11:47:18.787Z,55.15
2017-12-08T11:49:45.328Z,54.86
2017-12-08T11:52:11.858Z,54.78
2017-12-08T11:54:38.273Z,55.15
2017-12-08T11:57:04.809Z,55.39
2017-12-08T11:59:31.411Z,55.77
2017-12-08T12:01:57.849Z,55.37
2017-12-08T12:04:24.273Z,54.53
2017-12-08T12:06:50.725Z,54.87
2017-12-08T12:09:17.148Z,55.25
2017-12-08T12:11:43.605Z,57.29
2017-12-08T12:14:10.068Z,55.74
2017-12-08T12:16:36.586Z,57.53
2017-12-08T12:19:02.997Z,57.18
2017-12-08T12:21:29.476Z,59.16
2017-12-08T12:23:55.985Z,59.02
2017-12-08T12:26:22.398Z,58.54
2017-12-08T12:28:48.971Z,59.01
2017-12-08T12:31:15.609Z,58.54
2017-12-08T12:33:42.285Z,59.56
2017-12-08T12:36:08.845Z,59.90
2017-12-08T12:38:35.282Z,60.44
2017-12-08T12:41:01.751Z,59.86
2017-12-08T12:43:28.204Z,57.05
2017-12-08T12:45:54.641Z,60.11
2017-12-08T12:48:21.493Z,58.88
2017-12-08T12:50:48.065Z,58.67
2017-12-08T12:53:14.642Z,59.57
2017-12-08T12:55:41.112Z,59.09
2017-12-08T12:58:07.818Z,58.65
2017-12-08T13:00:34.350Z,59.48
2017-12-08T13:03:00.793Z,58.92
2017-12-08T13:05:27.314Z,59.34
2017-12-08T13:07:53.720Z,58.20
2017-12-08T13:10:20.175Z,58.45
2017-12-08T13:12:46.637Z,59.19
2017-12-08T13:15:13.063Z,58.86
2017-12-08T13:17:39.466Z,58.13
2017-12-08T13:20:05.961Z,58.98
2017-12-08T13:22:32.345Z,57.73
2017-12-08T13:24:58.732Z,59.17
2017-12-08T13:27:25.213Z,58.64
2017-12-08T13:29:51.564Z,59.00
2017-12-08T13:32:17.920Z,58.37
2017-12-08T13:34:44.354Z,58.75
2017-12-08T13:37:10.717Z,59.05
2017-12-08T13:39:37.109Z,58.12
2017-12-08T13:42:03.539Z,57.86
2017-12-08T13:44:29.912Z,59.15
2017-12-08T13:46:56.288Z,59.01
2017-12-08T13:49:22.672Z,59.11
2017-12-08T13:51:49.145Z,58.47
2017-12-08T13:54:27.578Z,58.35
2017-12-08T13:56:54.055Z,58.99
2017-12-08T13:59:20.444Z,59.12
2017-12-08T14:01:46.964Z,59.30
2017-12-08T14:04:13.392Z,58.76
2017-12-08T14:06:39.819Z,58.95
2017-12-08T14:09:06.545Z,59.43
2017-12-08T14:11:33.025Z,59.38
2017-12-08T14:13:59.449Z,59.65
2017-12-08T14:16:25.991Z,59.85
2017-12-08T14:18:52.381Z,59.73
2017-12-08T14:21:18.764Z,60.24
2017-12-08T14:23:45.191Z,60.81
2017-12-08T14:26:11.576Z,58.71
2017-12-08T14:28:37.941Z,61.25
2017-12-08T14:31:04.364Z,58.78
2017-12-08T14:33:30.724Z,61.03
2017-12-08T14:35:57.283Z,60.49
2017-12-08T14:38:23.677Z,61.65
2017-12-08T14:40:50.091Z,61.17
2017-12-08T14:43:16.476Z,59.97
2017-12-08T14:45:43.137Z,59.69
2017-12-08T14:48:09.595Z,59.30
2017-12-08T14:50:35.960Z,60.55
2017-12-08T14:53:02.367Z,59.40
2017-12-08T14:55:28.722Z,61.22
2017-12-08T14:57:55.108Z,60.70
2017-12-08T15:00:21.516Z,61.89
2017-12-08T15:02:47.992Z,63.13
2017-12-08T15:11:16.873Z,61.34
2017-12-08T15:13:49.341Z,63.74
2017-12-08T15:16:15.728Z,63.60
2017-12-08T15:18:42.181Z,61.92
2017-12-08T15:21:08.556Z,61.96
2017-12-08T15:23:34.961Z,64.44
2017-12-08T15:26:01.396Z,62.04
2017-12-08T15:28:27.761Z,61.85
2017-12-08T15:30:54.122Z,62.98
2017-12-08T15:33:20.555Z,61.90
2017-12-08T15:35:46.976Z,63.16
2017-12-08T15:38:13.549Z,62.38
2017-12-08T15:40:41.604Z,63.05
2017-12-08T15:43:08.152Z,62.47
2017-12-08T15:48:06.605Z,64.61
2017-12-08T15:50:33.015Z,64.77
2017-12-08T15:52:59.529Z,63.32
2017-12-08T15:55:44.236Z,63.62
2017-12-08T15:58:15.639Z,65.03
2017-12-08T16:00:42.093Z,65.60
2017-12-08T16:03:08.556Z,65.87
2017-12-08T16:05:34.936Z,65.94
2017-12-08T16:08:01.445Z,65.71
2017-12-08T16:10:27.912Z,64.76
2017-12-08T16:12:54.300Z,64.66
2017-12-08T16:15:20.849Z,64.57
2017-12-08T16:17:48.282Z,64.54
2017-12-08T16:20:14.669Z,64.59
2017-12-08T16:22:41.101Z,64.66
2017-12-08T16:25:07.660Z,64.90
2017-12-08T16:27:34.073Z,65.13
2017-12-08T16:30:00.481Z,65.13
2017-12-08T16:32:26.914Z,65.16
2017-12-08T16:34:53.324Z,65.11
2017-12-08T16:37:19.704Z,65.45
2017-12-08T16:39:46.188Z,65.11
2017-12-08T16:42:12.588Z,65.53
2017-12-08T16:44:38.996Z,65.34
2017-12-08T16:47:05.420Z,65.44
2017-12-08T16:49:31.760Z,65.74
2017-12-08T16:51:58.128Z,65.86
2017-12-08T16:54:24.512Z,66.00
2017-12-08T16:56:50.955Z,66.57
2017-12-08T16:59:17.520Z,66.15
2017-12-08T17:01:44.104Z,65.29
2017-12-08T17:04:10.457Z,65.53
2017-12-08T17:06:36.820Z,65.13
2017-12-08T17:09:03.516Z,65.52
2017-12-08T17:11:29.860Z,66.09
2017-12-08T17:13:56.389Z,66.21
2017-12-08T17:16:22.885Z,66.54
2017-12-08T17:18:49.273Z,66.30
2017-12-08T17:21:15.672Z,66.75
2017-12-08T17:23:42.116Z,65.11
2017-12-08T17:26:08.539Z,65.31
2017-12-08T17:28:34.987Z,65.85
2017-12-08T17:31:01.468Z,65.54
2017-12-08T17:33:27.915Z,65.58
2017-12-08T17:35:54.361Z,65.12
2017-12-08T17:38:20.793Z,64.76
2017-12-08T17:40:48.413Z,65.34
2017-12-08T17:43:14.809Z,65.88
2017-12-08T17:45:41.220Z,66.19
2017-12-08T17:48:07.574Z,66.38
2017-12-08T17:50:33.924Z,66.30
2017-12-08T17:53:00.355Z,66.01
2017-12-08T17:55:26.789Z,67.21
2017-12-08T17:57:53.173Z,65.97
2017-12-08T18:00:20.573Z,65.17
2017-12-08T18:02:46.965Z,65.93
2017-12-08T18:05:14.022Z,64.75
2017-12-08T18:07:40.609Z,65.30
2017-12-08T18:10:07.034Z,65.46
2017-12-08T18:12:34.840Z,66.08
2017-12-08T18:15:01.281Z,66.48
2017-12-08T18:17:27.672Z,66.22
2017-12-08T18:19:54.123Z,66.53
2017-12-08T18:22:20.680Z,66.85
2017-12-08T18:24:47.112Z,66.41
2017-12-08T18:27:13.506Z,66.21
2017-12-08T18:29:42.434Z,66.42
2017-12-08T18:32:08.898Z,66.46
2017-12-08T18:34:35.293Z,66.47
2017-12-08T18:37:01.861Z,66.06
2017-12-08T18:39:28.265Z,66.24
2017-12-08T18:41:54.688Z,66.59
2017-12-08T18:44:21.097Z,65.61
2017-12-08T18:46:47.495Z,65.58
2017-12-08T18:49:13.852Z,65.76
2017-12-08T18:51:40.292Z,67.63
2017-12-08T18:54:06.669Z,65.35
2017-12-08T18:56:33.076Z,65.90
2017-12-08T18:58:59.524Z,65.64
2017-12-08T19:01:25.910Z,65.91
2017-12-08T19:03:52.276Z,65.91
2017-12-08T19:06:18.706Z,66.54
2017-12-08T19:08:45.104Z,66.60
2017-12-08T19:11:11.621Z,65.78
2017-12-08T19:13:38.075Z,65.88
2017-12-08T19:16:04.439Z,66.25
2017-12-08T19:18:30.816Z,66.73
2017-12-08T19:20:57.287Z,66.81
2017-12-08T19:23:23.695Z,66.88
2017-12-08T19:25:50.172Z,67.30
2017-12-08T19:28:16.715Z,67.30
2017-12-08T19:30:43.100Z,67.30
2017-12-08T19:33:09.622Z,67.15
2017-12-08T19:35:36.466Z,67.67
2017-12-08T19:38:03.877Z,67.40
2017-12-08T19:40:30.281Z,66.99
2017-12-08T19:42:56.784Z,66.07
2017-12-08T19:45:23.166Z,67.10
2017-12-08T19:47:49.657Z,66.04
2017-12-08T19:50:16.113Z,65.85
2017-12-08T19:52:42.530Z,65.33
2017-12-08T19:55:08.904Z,65.07
2017-12-08T19:57:35.350Z,64.68
2017-12-08T20:00:01.926Z,65.05
2017-12-08T20:02:28.323Z,64.80
2017-12-08T20:04:54.790Z,66.21
2017-12-08T20:07:21.192Z,64.46
2017-12-08T20:09:47.657Z,63.86
2017-12-08T20:12:14.140Z,64.28
2017-12-08T20:14:40.529Z,64.90
2017-12-08T20:17:06.904Z,65.33
2017-12-08T20:19:33.356Z,65.27
2017-12-08T20:21:59.799Z,65.59
2017-12-08T20:24:26.190Z,65.20
2017-12-08T20:26:52.661Z,65.23
2017-12-08T20:29:19.052Z,65.04
2017-12-08T20:31:45.431Z,64.46
2017-12-08T20:34:11.896Z,64.42
2017-12-08T20:36:38.425Z,64.94
2017-12-08T20:39:04.980Z,64.98
2017-12-08T20:41:31.373Z,65.69
2017-12-08T20:43:57.705Z,66.07
2017-12-08T20:46:24.084Z,66.34
2017-12-08T20:48:50.487Z,66.22
2017-12-08T20:51:16.848Z,66.24
2017-12-08T20:53:43.254Z,65.75
2017-12-08T20:56:09.789Z,65.68
2017-12-08T20:58:36.197Z,66.01
2017-12-08T21:01:02.573Z,66.25
2017-12-08T21:03:29.017Z,66.09
2017-12-08T21:05:55.475Z,66.28
2017-12-08T21:08:21.884Z,66.31
2017-12-08T21:10:48.492Z,66.43
2017-12-08T21:13:14.864Z,66.60
2017-12-08T21:15:41.277Z,66.81
2017-12-08T21:18:07.790Z,66.62
2017-12-08T21:20:34.173Z,66.43
2017-12-08T21:23:00.536Z,66.54
2017-12-08T21:25:27.005Z,66.01
2017-12-08T21:27:53.496Z,65.08
2017-12-08T21:30:19.977Z,65.52
2017-12-08T21:32:46.390Z,65.19
2017-12-08T21:35:12.822Z,64.34
2017-12-08T21:37:39.180Z,65.08
2017-12-08T21:40:05.584Z,63.97
2017-12-08T21:42:31.944Z,63.78
2017-12-08T21:44:58.290Z,64.36
2017-12-08T21:47:24.785Z,65.02
2017-12-08T21:49:51.216Z,65.19
2017-12-08T21:52:17.600Z,64.03
2017-12-08T21:54:44.016Z,64.33
2017-12-08T21:57:10.360Z,64.52
2017-12-08T21:59:36.785Z,64.92
2017-12-08T22:02:03.280Z,64.71
2017-12-08T22:04:29.732Z,65.27
2017-12-08T22:06:56.124Z,65.19
2017-12-08T22:09:22.587Z,65.22
2017-12-08T22:11:48.945Z,65.77
2017-12-08T22:14:15.535Z,65.15
2017-12-08T22:16:41.989Z,64.92
2017-12-08T22:19:08.400Z,65.31
2017-12-08T22:21:34.849Z,65.41
2017-12-08T22:24:01.457Z,65.22
2017-12-08T22:26:27.904Z,65.39
2017-12-08T22:28:54.338Z,65.45
2017-12-08T22:31:20.760Z,65.74
2017-12-08T22:33:47.203Z,65.99
2017-12-08T22:36:13.708Z,65.42
2017-12-08T22:38:40.273Z,65.51
2017-12-08T22:41:06.827Z,65.92
2017-12-08T22:43:33.428Z,66.55
2017-12-08T22:45:59.899Z,66.46
2017-12-08T22:48:26.300Z,65.84
2017-12-08T22:50:52.830Z,65.42
2017-12-08T22:53:19.342Z,65.52
2017-12-08T22:55:45.711Z,65.43
2017-12-08T22:58:12.186Z,65.75
2017-12-08T23:00:38.664Z,65.82
2017-12-08T23:03:05.175Z,65.73
2017-12-08T23:05:31.549Z,66.19
2017-12-08T23:07:58.009Z,69.82
2017-12-08T23:10:24.411Z,65.71
2017-12-08T23:12:50.844Z,65.46
2017-12-08T23:15:17.399Z,65.16
2017-12-08T23:17:43.820Z,64.87
2017-12-08T23:20:10.217Z,65.13
2017-12-08T23:22:36.655Z,65.64
2017-12-08T23:25:03.139Z,65.51
2017-12-08T23:27:29.487Z,65.04
2017-12-08T23:29:55.908Z,65.24
2017-12-08T23:32:22.252Z,66.64
2017-12-08T23:34:48.596Z,66.03
2017-12-08T23:37:15.216Z,65.65
2017-12-08T23:39:41.750Z,65.03
2017-12-08T23:42:08.274Z,65.25
2017-12-08T23:44:34.685Z,65.92
2017-12-08T23:47:01.093Z,64.60
2017-12-08T23:49:27.491Z,64.63
2017-12-08T23:51:53.954Z,64.60
2017-12-08T23:54:20.264Z,65.11
2017-12-08T23:56:46.627Z,65.79
2017-12-08T23:59:13.009Z,66.12
